sensor_id;sensor_type;location;lat;lon;timestamp;temperature;humidity
56308;DHT22;42217;50.422;7.210;2023-02-28T00:00:17;-0.90;99.90
56308;DHT22;42217;50.422;7.210;2023-02-28T00:02:44;-1.10;99.90
56308;DHT22;42217;50.422;7.210;2023-02-28T00:05:12;-1.10;99.90
56308;DHT22;42217;50.422;7.210;2023-02-28T00:07:38;-1.00;99.90
56308;DHT22;42217;50.422;7.210;2023-02-28T00:10:09;-1.00;99.90
56308;DHT22;42217;50.422;7.210;2023-02-28T00:12:36;-1.10;99.90
56308;DHT22;42217;50.422;7.210;2023-02-28T00:15:06;-1.10;99.90
56308;DHT22;42217;50.422;7.210;2023-02-28T00:17:32;-0.90;99.90
56308;DHT22;42217;50.422;7.210;2023-02-28T00:19:58;-0.80;99.90
56308;DHT22;42217;50.422;7.210;2023-02-28T00:22:36;-0.80;99.90
56308;DHT22;42217;50.422;7.210;2023-02-28T00:25:02;-0.60;99.90
56308;DHT22;42217;50.422;7.210;2023-02-28T00:27:29;-0.60;99.90
56308;DHT22;42217;50.422;7.210;2023-02-28T00:29:54;-0.70;99.90
56308;DHT22;42217;50.422;7.210;2023-02-28T00:32:20;-0.80;99.90
56308;DHT22;42217;50.422;7.210;2023-02-28T00:34:46;-0.90;99.90
56308;DHT22;42217;50.422;7.210;2023-02-28T00:37:12;-1.00;99.90
56308;DHT22;42217;50.422;7.210;2023-02-28T00:39:38;-1.20;99.90
56308;DHT22;42217;50.422;7.210;2023-02-28T00:42:05;-1.40;99.90
56308;DHT22;42217;50.422;7.210;2023-02-28T00:44:31;-1.40;99.90
56308;DHT22;42217;50.422;7.210;2023-02-28T00:46:58;-1.40;99.90
56308;DHT22;42217;50.422;7.210;2023-02-28T00:49:25;-1.50;99.90
56308;DHT22;42217;50.422;7.210;2023-02-28T00:51:51;-1.50;99.90
56308;DHT22;42217;50.422;7.210;2023-02-28T00:54:17;-1.50;99.90
56308;DHT22;42217;50.422;7.210;2023-02-28T00:56:43;-1.60;99.90
56308;DHT22;42217;50.422;7.210;2023-02-28T00:59:09;-1.60;99.90
56308;DHT22;42217;50.422;7.210;2023-02-28T01:01:35;-1.60;99.90
56308;DHT22;42217;50.422;7.210;2023-02-28T01:04:00;-1.60;99.90
56308;DHT22;42217;50.422;7.210;2023-02-28T01:06:26;-1.60;99.90
56308;DHT22;42217;50.422;7.210;2023-02-28T01:08:52;-1.80;99.90
56308;DHT22;42217;50.422;7.210;2023-02-28T01:11:18;-1.90;99.90
56308;DHT22;42217;50.422;7.210;2023-02-28T01:13:45;-2.00;99.90
56308;DHT22;42217;50.422;7.210;2023-02-28T01:16:12;-2.20;99.90
56308;DHT22;42217;50.422;7.210;2023-02-28T01:18:38;-2.30;99.90
56308;DHT22;42217;50.422;7.210;2023-02-28T01:21:05;-2.20;99.90
56308;DHT22;42217;50.422;7.210;2023-02-28T01:23:31;-2.20;99.90
56308;DHT22;42217;50.422;7.210;2023-02-28T01:25:57;-2.10;99.90
56308;DHT22;42217;50.422;7.210;2023-02-28T01:28:23;-2.00;99.90
56308;DHT22;42217;50.422;7.210;2023-02-28T01:30:49;-1.90;99.90
56308;DHT22;42217;50.422;7.210;2023-02-28T01:33:15;-1.90;99.90
56308;DHT22;42217;50.422;7.210;2023-02-28T01:35:41;-2.00;99.90
56308;DHT22;42217;50.422;7.210;2023-02-28T01:38:07;-2.10;99.90
56308;DHT22;42217;50.422;7.210;2023-02-28T01:40:32;-2.10;99.90
56308;DHT22;42217;50.422;7.210;2023-02-28T01:42:58;-2.10;99.90
56308;DHT22;42217;50.422;7.210;2023-02-28T01:45:29;-2.10;99.90
56308;DHT22;42217;50.422;7.210;2023-02-28T01:47:59;-2.20;99.90
56308;DHT22;42217;50.422;7.210;2023-02-28T01:50:29;-2.40;99.90
56308;DHT22;42217;50.422;7.210;2023-02-28T01:52:58;-2.40;99.90
56308;DHT22;42217;50.422;7.210;2023-02-28T01:55:26;-2.60;99.90
56308;DHT22;42217;50.422;7.210;2023-02-28T01:57:57;-2.60;99.90
56308;DHT22;42217;50.422;7.210;2023-02-28T02:00:26;-2.70;99.90
56308;DHT22;42217;50.422;7.210;2023-02-28T02:03:00;-2.70;99.90
56308;DHT22;42217;50.422;7.210;2023-02-28T02:05:29;-2.70;99.90
56308;DHT22;42217;50.422;7.210;2023-02-28T02:08:03;-2.90;99.90
56308;DHT22;42217;50.422;7.210;2023-02-28T02:10:33;-3.00;99.90
56308;DHT22;42217;50.422;7.210;2023-02-28T02:18:53;-2.90;99.90
56308;DHT22;42217;50.422;7.210;2023-02-28T02:37:22;-2.90;99.90
56308;DHT22;42217;50.422;7.210;2023-02-28T02:45:11;-3.20;99.90
56308;DHT22;42217;50.422;7.210;2023-02-28T02:47:39;-3.40;99.90
56308;DHT22;42217;50.422;7.210;2023-02-28T02:50:08;-3.50;99.90
56308;DHT22;42217;50.422;7.210;2023-02-28T02:52:41;-3.40;99.90
56308;DHT22;42217;50.422;7.210;2023-02-28T02:55:09;-3.30;99.90
56308;DHT22;42217;50.422;7.210;2023-02-28T03:00:10;-3.10;99.90
56308;DHT22;42217;50.422;7.210;2023-02-28T03:02:37;-3.00;99.90
56308;DHT22;42217;50.422;7.210;2023-02-28T03:05:14;-2.90;99.90
56308;DHT22;42217;50.422;7.210;2023-02-28T03:07:42;-2.80;99.90
56308;DHT22;42217;50.422;7.210;2023-02-28T03:10:33;-2.70;99.90
56308;DHT22;42217;50.422;7.210;2023-02-28T03:16:06;-2.80;99.90
56308;DHT22;42217;50.422;7.210;2023-02-28T03:26:58;-2.80;99.90
56308;DHT22;42217;50.422;7.210;2023-02-28T03:29:28;-3.10;99.90
56308;DHT22;42217;50.422;7.210;2023-02-28T03:32:05;-3.10;99.90
56308;DHT22;42217;50.422;7.210;2023-02-28T03:34:41;-3.10;99.90
56308;DHT22;42217;50.422;7.210;2023-02-28T03:37:16;-3.20;99.90
56308;DHT22;42217;50.422;7.210;2023-02-28T03:39:50;-3.30;99.90
56308;DHT22;42217;50.422;7.210;2023-02-28T03:42:22;-3.30;99.90
56308;DHT22;42217;50.422;7.210;2023-02-28T03:44:53;-3.30;99.90
56308;DHT22;42217;50.422;7.210;2023-02-28T03:47:37;-3.30;99.90
56308;DHT22;42217;50.422;7.210;2023-02-28T03:53:28;-3.40;99.90
56308;DHT22;42217;50.422;7.210;2023-02-28T03:56:08;-3.40;99.90
56308;DHT22;42217;50.422;7.210;2023-02-28T04:01:23;-3.90;99.90
56308;DHT22;42217;50.422;7.210;2023-02-28T04:03:50;-4.10;99.90
56308;DHT22;42217;50.422;7.210;2023-02-28T04:06:19;-4.20;99.90
56308;DHT22;42217;50.422;7.210;2023-02-28T04:08:46;-4.20;99.90
56308;DHT22;42217;50.422;7.210;2023-02-28T04:11:39;-4.20;99.90
56308;DHT22;42217;50.422;7.210;2023-02-28T04:14:07;-4.10;99.90
56308;DHT22;42217;50.422;7.210;2023-02-28T04:16:34;-4.30;99.90
56308;DHT22;42217;50.422;7.210;2023-02-28T04:19:02;-4.30;99.90
56308;DHT22;42217;50.422;7.210;2023-02-28T04:21:29;-4.50;99.90
56308;DHT22;42217;50.422;7.210;2023-02-28T04:23:55;-4.70;99.90
56308;DHT22;42217;50.422;7.210;2023-02-28T04:26:21;-4.70;99.90
56308;DHT22;42217;50.422;7.210;2023-02-28T04:28:46;-4.80;99.90
56308;DHT22;42217;50.422;7.210;2023-02-28T04:31:13;-5.00;99.90
56308;DHT22;42217;50.422;7.210;2023-02-28T04:33:39;-5.20;99.90
56308;DHT22;42217;50.422;7.210;2023-02-28T04:36:07;-5.20;99.90
56308;DHT22;42217;50.422;7.210;2023-02-28T04:38:35;-5.10;99.90
56308;DHT22;42217;50.422;7.210;2023-02-28T04:41:01;-5.10;99.90
56308;DHT22;42217;50.422;7.210;2023-02-28T04:43:28;-5.20;99.90
56308;DHT22;42217;50.422;7.210;2023-02-28T04:45:55;-5.30;99.90
56308;DHT22;42217;50.422;7.210;2023-02-28T04:48:35;-5.20;99.90
56308;DHT22;42217;50.422;7.210;2023-02-28T04:51:07;-5.20;99.90
56308;DHT22;42217;50.422;7.210;2023-02-28T04:53:33;-5.40;99.90
56308;DHT22;42217;50.422;7.210;2023-02-28T04:55:59;-5.50;99.90
56308;DHT22;42217;50.422;7.210;2023-02-28T04:58:25;-5.50;99.90
56308;DHT22;42217;50.422;7.210;2023-02-28T05:00:52;-5.70;99.90
56308;DHT22;42217;50.422;7.210;2023-02-28T05:03:18;-5.70;99.90
56308;DHT22;42217;50.422;7.210;2023-02-28T05:05:43;-5.50;99.90
56308;DHT22;42217;50.422;7.210;2023-02-28T05:08:09;-5.40;99.90
56308;DHT22;42217;50.422;7.210;2023-02-28T05:10:35;-5.30;99.90
56308;DHT22;42217;50.422;7.210;2023-02-28T05:13:01;-5.30;99.90
56308;DHT22;42217;50.422;7.210;2023-02-28T05:15:28;-5.40;99.90
56308;DHT22;42217;50.422;7.210;2023-02-28T05:17:54;-5.50;99.90
56308;DHT22;42217;50.422;7.210;2023-02-28T05:20:19;-5.80;99.90
56308;DHT22;42217;50.422;7.210;2023-02-28T05:22:46;-6.10;99.90
56308;DHT22;42217;50.422;7.210;2023-02-28T05:25:20;-6.00;99.90
56308;DHT22;42217;50.422;7.210;2023-02-28T05:27:47;-5.60;99.90
56308;DHT22;42217;50.422;7.210;2023-02-28T05:30:13;-5.40;99.90
56308;DHT22;42217;50.422;7.210;2023-02-28T05:32:39;-5.40;99.90
56308;DHT22;42217;50.422;7.210;2023-02-28T05:35:09;-5.50;99.90
56308;DHT22;42217;50.422;7.210;2023-02-28T05:37:36;-5.70;99.90
56308;DHT22;42217;50.422;7.210;2023-02-28T05:40:02;-5.90;99.90
56308;DHT22;42217;50.422;7.210;2023-02-28T05:42:31;-5.80;99.90
56308;DHT22;42217;50.422;7.210;2023-02-28T05:44:57;-5.90;99.90
56308;DHT22;42217;50.422;7.210;2023-02-28T05:47:23;-5.80;99.90
56308;DHT22;42217;50.422;7.210;2023-02-28T05:49:48;-5.70;99.90
56308;DHT22;42217;50.422;7.210;2023-02-28T05:52:14;-5.50;99.90
56308;DHT22;42217;50.422;7.210;2023-02-28T05:54:40;-5.60;99.90
56308;DHT22;42217;50.422;7.210;2023-02-28T05:57:06;-5.80;99.90
56308;DHT22;42217;50.422;7.210;2023-02-28T05:59:32;-6.10;99.90
56308;DHT22;42217;50.422;7.210;2023-02-28T06:01:58;-6.30;99.90
56308;DHT22;42217;50.422;7.210;2023-02-28T06:04:24;-6.60;99.90
56308;DHT22;42217;50.422;7.210;2023-02-28T06:06:50;-6.80;99.90
56308;DHT22;42217;50.422;7.210;2023-02-28T06:09:17;-6.90;99.90
56308;DHT22;42217;50.422;7.210;2023-02-28T06:11:43;-6.70;99.90
56308;DHT22;42217;50.422;7.210;2023-02-28T06:14:15;-6.20;99.90
56308;DHT22;42217;50.422;7.210;2023-02-28T06:16:42;-5.90;99.90
56308;DHT22;42217;50.422;7.210;2023-02-28T06:19:09;-5.90;99.90
56308;DHT22;42217;50.422;7.210;2023-02-28T06:21:35;-5.80;99.90
56308;DHT22;42217;50.422;7.210;2023-02-28T06:24:01;-5.80;99.90
56308;DHT22;42217;50.422;7.210;2023-02-28T06:26:27;-5.80;99.90
56308;DHT22;42217;50.422;7.210;2023-02-28T06:28:53;-5.70;99.90
56308;DHT22;42217;50.422;7.210;2023-02-28T06:31:19;-5.90;99.90
56308;DHT22;42217;50.422;7.210;2023-02-28T06:33:45;-6.00;99.90
56308;DHT22;42217;50.422;7.210;2023-02-28T06:36:12;-6.20;99.90
56308;DHT22;42217;50.422;7.210;2023-02-28T06:38:39;-6.10;99.90
56308;DHT22;42217;50.422;7.210;2023-02-28T06:41:05;-5.80;99.90
56308;DHT22;42217;50.422;7.210;2023-02-28T06:43:36;-5.80;99.90
56308;DHT22;42217;50.422;7.210;2023-02-28T06:46:03;-5.80;99.90
56308;DHT22;42217;50.422;7.210;2023-02-28T06:48:29;-5.70;99.90
56308;DHT22;42217;50.422;7.210;2023-02-28T06:51:09;-5.80;99.90
56308;DHT22;42217;50.422;7.210;2023-02-28T06:53:36;-5.60;99.90
56308;DHT22;42217;50.422;7.210;2023-02-28T06:56:07;-5.40;99.90
56308;DHT22;42217;50.422;7.210;2023-02-28T06:58:34;-5.30;99.90
56308;DHT22;42217;50.422;7.210;2023-02-28T07:01:00;-5.10;99.90
56308;DHT22;42217;50.422;7.210;2023-02-28T07:03:25;-4.90;99.90
56308;DHT22;42217;50.422;7.210;2023-02-28T07:05:51;-4.70;99.90
56308;DHT22;42217;50.422;7.210;2023-02-28T07:08:17;-4.70;99.90
56308;DHT22;42217;50.422;7.210;2023-02-28T07:10:43;-4.80;99.90
56308;DHT22;42217;50.422;7.210;2023-02-28T07:13:09;-4.90;99.90
56308;DHT22;42217;50.422;7.210;2023-02-28T07:15:36;-5.10;99.90
56308;DHT22;42217;50.422;7.210;2023-02-28T07:18:02;-5.20;99.90
56308;DHT22;42217;50.422;7.210;2023-02-28T07:20:29;-5.10;99.90
56308;DHT22;42217;50.422;7.210;2023-02-28T07:22:55;-5.20;99.90
56308;DHT22;42217;50.422;7.210;2023-02-28T07:25:27;-5.10;99.90
56308;DHT22;42217;50.422;7.210;2023-02-28T07:27:54;-5.00;99.90
56308;DHT22;42217;50.422;7.210;2023-02-28T07:30:20;-4.90;99.90
56308;DHT22;42217;50.422;7.210;2023-02-28T07:32:46;-4.70;99.90
56308;DHT22;42217;50.422;7.210;2023-02-28T07:35:12;-4.60;99.90
56308;DHT22;42217;50.422;7.210;2023-02-28T07:37:38;-4.50;99.90
56308;DHT22;42217;50.422;7.210;2023-02-28T07:40:05;-4.30;99.90
56308;DHT22;42217;50.422;7.210;2023-02-28T07:42:37;-4.10;99.90
56308;DHT22;42217;50.422;7.210;2023-02-28T07:45:04;-3.80;99.90
56308;DHT22;42217;50.422;7.210;2023-02-28T07:47:30;-3.70;99.90
56308;DHT22;42217;50.422;7.210;2023-02-28T07:49:56;-3.60;99.90
56308;DHT22;42217;50.422;7.210;2023-02-28T07:52:23;-3.40;99.90
56308;DHT22;42217;50.422;7.210;2023-02-28T07:54:49;-3.20;99.90
56308;DHT22;42217;50.422;7.210;2023-02-28T07:57:15;-2.90;99.90
56308;DHT22;42217;50.422;7.210;2023-02-28T07:59:41;-2.50;99.90
56308;DHT22;42217;50.422;7.210;2023-02-28T08:02:12;-2.30;99.90
56308;DHT22;42217;50.422;7.210;2023-02-28T08:04:37;-2.10;99.90
56308;DHT22;42217;50.422;7.210;2023-02-28T08:07:03;-1.90;99.90
56308;DHT22;42217;50.422;7.210;2023-02-28T08:09:29;-1.90;99.90
56308;DHT22;42217;50.422;7.210;2023-02-28T08:11:55;-1.80;99.90
56308;DHT22;42217;50.422;7.210;2023-02-28T08:14:21;-1.90;99.90
56308;DHT22;42217;50.422;7.210;2023-02-28T08:16:46;-2.00;99.90
56308;DHT22;42217;50.422;7.210;2023-02-28T08:19:12;-2.00;99.90
56308;DHT22;42217;50.422;7.210;2023-02-28T08:21:38;-2.00;99.90
56308;DHT22;42217;50.422;7.210;2023-02-28T08:24:07;-2.00;99.90
56308;DHT22;42217;50.422;7.210;2023-02-28T08:26:32;-2.00;99.90
56308;DHT22;42217;50.422;7.210;2023-02-28T08:28:58;-2.00;99.90
56308;DHT22;42217;50.422;7.210;2023-02-28T08:31:24;-1.80;99.90
56308;DHT22;42217;50.422;7.210;2023-02-28T08:33:50;-1.70;99.90
56308;DHT22;42217;50.422;7.210;2023-02-28T08:36:18;-1.70;99.90
56308;DHT22;42217;50.422;7.210;2023-02-28T08:38:44;-1.60;99.90
56308;DHT22;42217;50.422;7.210;2023-02-28T08:41:12;-1.60;99.90
56308;DHT22;42217;50.422;7.210;2023-02-28T08:43:39;-1.70;99.90
56308;DHT22;42217;50.422;7.210;2023-02-28T08:46:06;-1.60;99.90
56308;DHT22;42217;50.422;7.210;2023-02-28T08:48:33;-1.60;99.90
56308;DHT22;42217;50.422;7.210;2023-02-28T08:51:02;-1.50;99.90
56308;DHT22;42217;50.422;7.210;2023-02-28T08:53:28;-1.40;99.90
56308;DHT22;42217;50.422;7.210;2023-02-28T08:56:06;-1.20;99.90
56308;DHT22;42217;50.422;7.210;2023-02-28T08:58:32;-0.90;99.90
56308;DHT22;42217;50.422;7.210;2023-02-28T09:00:59;-0.60;99.80
56308;DHT22;42217;50.422;7.210;2023-02-28T09:03:25;-0.20;97.90
56308;DHT22;42217;50.422;7.210;2023-02-28T09:06:00;0.00;94.00
56308;DHT22;42217;50.422;7.210;2023-02-28T09:08:27;0.10;92.60
56308;DHT22;42217;50.422;7.210;2023-02-28T09:10:54;0.10;91.10
56308;DHT22;42217;50.422;7.210;2023-02-28T09:13:22;0.20;90.20
56308;DHT22;42217;50.422;7.210;2023-02-28T09:15:48;0.30;90.10
56308;DHT22;42217;50.422;7.210;2023-02-28T09:18:14;0.30;78.80
56308;DHT22;42217;50.422;7.210;2023-02-28T09:20:40;0.40;72.10
56308;DHT22;42217;50.422;7.210;2023-02-28T09:23:07;0.30;69.60
56308;DHT22;42217;50.422;7.210;2023-02-28T09:25:33;0.20;85.40
56308;DHT22;42217;50.422;7.210;2023-02-28T09:27:59;0.30;78.60
56308;DHT22;42217;50.422;7.210;2023-02-28T09:30:25;0.50;60.60
56308;DHT22;42217;50.422;7.210;2023-02-28T09:32:50;0.60;54.70
56308;DHT22;42217;50.422;7.210;2023-02-28T09:35:22;0.80;47.00
56308;DHT22;42217;50.422;7.210;2023-02-28T09:37:49;1.00;36.30
56308;DHT22;42217;50.422;7.210;2023-02-28T09:40:17;1.00;25.80
56308;DHT22;42217;50.422;7.210;2023-02-28T09:42:47;1.20;12.70
56308;DHT22;42217;50.422;7.210;2023-02-28T09:47:48;1.50;1.00
56308;DHT22;42217;50.422;7.210;2023-02-28T09:52:59;1.70;1.00
56308;DHT22;42217;50.422;7.210;2023-02-28T09:55:34;1.80;1.00
56308;DHT22;42217;50.422;7.210;2023-02-28T09:58:02;2.20;1.00
56308;DHT22;42217;50.422;7.210;2023-02-28T10:00:34;2.20;1.00
56308;DHT22;42217;50.422;7.210;2023-02-28T10:06:12;2.10;1.00
56308;DHT22;42217;50.422;7.210;2023-02-28T10:11:23;2.40;1.00
56308;DHT22;42217;50.422;7.210;2023-02-28T10:14:00;2.50;1.00
56308;DHT22;42217;50.422;7.210;2023-02-28T10:19:17;2.40;1.00
56308;DHT22;42217;50.422;7.210;2023-02-28T10:22:04;2.40;1.00
56308;DHT22;42217;50.422;7.210;2023-02-28T10:24:44;2.50;1.00
56308;DHT22;42217;50.422;7.210;2023-02-28T10:27:19;2.50;99.90
56308;DHT22;42217;50.422;7.210;2023-02-28T10:29:53;2.60;99.90
56308;DHT22;42217;50.422;7.210;2023-02-28T10:32:40;2.70;99.90
56308;DHT22;42217;50.422;7.210;2023-02-28T10:37:38;3.20;99.90
56308;DHT22;42217;50.422;7.210;2023-02-28T10:40:05;3.30;99.90
56308;DHT22;42217;50.422;7.210;2023-02-28T10:42:32;3.30;99.90
56308;DHT22;42217;50.422;7.210;2023-02-28T10:47:58;3.20;73.70
56308;DHT22;42217;50.422;7.210;2023-02-28T10:58:25;3.40;97.60
56308;DHT22;42217;50.422;7.210;2023-02-28T11:00:51;3.50;61.10
56308;DHT22;42217;50.422;7.210;2023-02-28T11:03:29;3.50;99.90
56308;DHT22;42217;50.422;7.210;2023-02-28T11:05:56;3.70;1.00
56308;DHT22;42217;50.422;7.210;2023-02-28T11:08:22;3.70;1.00
56308;DHT22;42217;50.422;7.210;2023-02-28T11:10:55;3.60;10.30
56308;DHT22;42217;50.422;7.210;2023-02-28T11:13:26;3.50;4.60
56308;DHT22;42217;50.422;7.210;2023-02-28T11:15:55;3.50;99.90
56308;DHT22;42217;50.422;7.210;2023-02-28T11:18:29;3.60;1.00
56308;DHT22;42217;50.422;7.210;2023-02-28T11:20:57;3.60;1.00
56308;DHT22;42217;50.422;7.210;2023-02-28T11:23:26;3.40;1.00
56308;DHT22;42217;50.422;7.210;2023-02-28T11:25:55;3.50;99.90
56308;DHT22;42217;50.422;7.210;2023-02-28T11:36:23;4.70;99.90
56308;DHT22;42217;50.422;7.210;2023-02-28T11:38:59;4.70;32.90
56308;DHT22;42217;50.422;7.210;2023-02-28T11:46:58;3.50;1.00
56308;DHT22;42217;50.422;7.210;2023-02-28T12:03:45;3.20;99.90
56308;DHT22;42217;50.422;7.210;2023-02-28T12:09:26;3.50;99.90
56308;DHT22;42217;50.422;7.210;2023-02-28T12:11:58;3.60;75.50
56308;DHT22;42217;50.422;7.210;2023-02-28T12:28:47;3.10;99.90
56308;DHT22;42217;50.422;7.210;2023-02-28T12:33:47;3.30;92.80
56308;DHT22;42217;50.422;7.210;2023-02-28T12:36:18;3.40;99.90
56308;DHT22;42217;50.422;7.210;2023-02-28T12:38:59;3.50;1.00
56308;DHT22;42217;50.422;7.210;2023-02-28T12:41:54;3.40;99.90
56308;DHT22;42217;50.422;7.210;2023-02-28T12:44:23;3.30;1.00
56308;DHT22;42217;50.422;7.210;2023-02-28T12:46:54;3.30;1.00
56308;DHT22;42217;50.422;7.210;2023-02-28T12:49:38;3.50;99.90
56308;DHT22;42217;50.422;7.210;2023-02-28T12:52:05;3.60;99.90
56308;DHT22;42217;50.422;7.210;2023-02-28T12:55:08;3.70;99.40
56308;DHT22;42217;50.422;7.210;2023-02-28T12:58:10;3.90;99.90
56308;DHT22;42217;50.422;7.210;2023-02-28T13:00:49;3.80;99.90
56308;DHT22;42217;50.422;7.210;2023-02-28T13:09:16;4.30;99.90
56308;DHT22;42217;50.422;7.210;2023-02-28T13:11:45;4.00;99.90
56308;DHT22;42217;50.422;7.210;2023-02-28T13:14:24;3.60;1.00
56308;DHT22;42217;50.422;7.210;2023-02-28T13:17:20;3.70;1.00
56308;DHT22;42217;50.422;7.210;2023-02-28T13:19:57;3.70;99.90
56308;DHT22;42217;50.422;7.210;2023-02-28T13:22:41;3.60;1.00
56308;DHT22;42217;50.422;7.210;2023-02-28T13:27:53;3.90;27.00
56308;DHT22;42217;50.422;7.210;2023-02-28T13:38:56;4.00;99.90
56308;DHT22;42217;50.422;7.210;2023-02-28T13:59:43;4.00;99.90
56308;DHT22;42217;50.422;7.210;2023-02-28T14:04:59;4.10;94.40
56308;DHT22;42217;50.422;7.210;2023-02-28T14:07:53;4.30;99.90
56308;DHT22;42217;50.422;7.210;2023-02-28T14:10:31;4.40;1.00
56308;DHT22;42217;50.422;7.210;2023-02-28T14:15:47;4.70;99.90
56308;DHT22;42217;50.422;7.210;2023-02-28T14:18:21;4.70;99.90
56308;DHT22;42217;50.422;7.210;2023-02-28T14:20:49;4.70;99.90
56308;DHT22;42217;50.422;7.210;2023-02-28T14:29:02;5.10;99.90
56308;DHT22;42217;50.422;7.210;2023-02-28T14:31:41;5.40;99.90
56308;DHT22;42217;50.422;7.210;2023-02-28T14:36:46;7.90;99.90
56308;DHT22;42217;50.422;7.210;2023-02-28T14:39:19;8.90;99.90
56308;DHT22;42217;50.422;7.210;2023-02-28T14:41:46;9.50;99.90
56308;DHT22;42217;50.422;7.210;2023-02-28T14:44:23;9.90;60.70
56308;DHT22;42217;50.422;7.210;2023-02-28T14:46:57;10.50;99.90
56308;DHT22;42217;50.422;7.210;2023-02-28T14:49:42;11.00;99.90
56308;DHT22;42217;50.422;7.210;2023-02-28T14:52:20;11.10;99.90
56308;DHT22;42217;50.422;7.210;2023-02-28T14:54:55;11.30;43.20
56308;DHT22;42217;50.422;7.210;2023-02-28T14:57:33;11.70;1.00
56308;DHT22;42217;50.422;7.210;2023-02-28T15:00:16;12.00;1.00
56308;DHT22;42217;50.422;7.210;2023-02-28T15:02:43;12.50;1.00
56308;DHT22;42217;50.422;7.210;2023-02-28T15:07:44;12.10;99.90
56308;DHT22;42217;50.422;7.210;2023-02-28T15:12:47;11.70;99.90
56308;DHT22;42217;50.422;7.210;2023-02-28T15:15:15;11.80;99.90
56308;DHT22;42217;50.422;7.210;2023-02-28T15:17:45;11.60;99.90
56308;DHT22;42217;50.422;7.210;2023-02-28T15:20:13;11.60;99.90
56308;DHT22;42217;50.422;7.210;2023-02-28T15:22:40;11.30;99.90
56308;DHT22;42217;50.422;7.210;2023-02-28T15:25:07;11.30;99.90
56308;DHT22;42217;50.422;7.210;2023-02-28T15:27:41;11.40;99.90
56308;DHT22;42217;50.422;7.210;2023-02-28T15:30:16;11.40;99.90
56308;DHT22;42217;50.422;7.210;2023-02-28T15:32:42;10.80;99.90
56308;DHT22;42217;50.422;7.210;2023-02-28T15:35:37;11.20;1.00
56308;DHT22;42217;50.422;7.210;2023-02-28T15:38:17;11.60;99.90
56308;DHT22;42217;50.422;7.210;2023-02-28T15:40:45;11.30;99.90
56308;DHT22;42217;50.422;7.210;2023-02-28T15:43:23;10.70;99.90
56308;DHT22;42217;50.422;7.210;2023-02-28T15:45:51;10.80;99.90
56308;DHT22;42217;50.422;7.210;2023-02-28T15:50:52;10.70;1.00
56308;DHT22;42217;50.422;7.210;2023-02-28T15:53:30;10.60;1.00
56308;DHT22;42217;50.422;7.210;2023-02-28T15:56:03;10.70;1.00
56308;DHT22;42217;50.422;7.210;2023-02-28T15:58:30;10.80;99.90
56308;DHT22;42217;50.422;7.210;2023-02-28T16:01:19;10.80;1.00
56308;DHT22;42217;50.422;7.210;2023-02-28T16:03:50;10.60;1.00
56308;DHT22;42217;50.422;7.210;2023-02-28T16:08:42;10.20;1.00
56308;DHT22;42217;50.422;7.210;2023-02-28T16:11:11;10.20;1.00
56308;DHT22;42217;50.422;7.210;2023-02-28T16:13:37;10.10;1.00
56308;DHT22;42217;50.422;7.210;2023-02-28T16:16:03;9.90;1.00
56308;DHT22;42217;50.422;7.210;2023-02-28T16:18:29;9.50;1.00
56308;DHT22;42217;50.422;7.210;2023-02-28T16:20:55;9.60;42.10
56308;DHT22;42217;50.422;7.210;2023-02-28T16:23:20;9.50;1.00
56308;DHT22;42217;50.422;7.210;2023-02-28T16:25:46;8.80;99.90
56308;DHT22;42217;50.422;7.210;2023-02-28T16:28:25;7.60;1.00
56308;DHT22;42217;50.422;7.210;2023-02-28T16:30:56;6.40;99.90
56308;DHT22;42217;50.422;7.210;2023-02-28T16:33:22;5.50;1.00
56308;DHT22;42217;50.422;7.210;2023-02-28T16:35:48;4.70;1.00
56308;DHT22;42217;50.422;7.210;2023-02-28T16:38:14;4.20;52.70
56308;DHT22;42217;50.422;7.210;2023-02-28T16:40:40;3.90;99.90
56308;DHT22;42217;50.422;7.210;2023-02-28T16:43:09;3.60;99.90
56308;DHT22;42217;50.422;7.210;2023-02-28T16:45:38;3.30;99.90
56308;DHT22;42217;50.422;7.210;2023-02-28T16:48:04;3.10;99.90
56308;DHT22;42217;50.422;7.210;2023-02-28T16:50:30;2.90;1.00
56308;DHT22;42217;50.422;7.210;2023-02-28T16:52:58;2.80;1.00
56308;DHT22;42217;50.422;7.210;2023-02-28T16:55:25;2.50;1.00
56308;DHT22;42217;50.422;7.210;2023-02-28T16:57:53;2.30;1.00
56308;DHT22;42217;50.422;7.210;2023-02-28T17:00:21;2.10;1.00
56308;DHT22;42217;50.422;7.210;2023-02-28T17:02:47;1.90;1.00
56308;DHT22;42217;50.422;7.210;2023-02-28T17:05:13;1.70;1.00
56308;DHT22;42217;50.422;7.210;2023-02-28T17:07:41;1.50;1.00
56308;DHT22;42217;50.422;7.210;2023-02-28T17:10:22;1.30;1.00
56308;DHT22;42217;50.422;7.210;2023-02-28T17:12:48;1.10;1.00
56308;DHT22;42217;50.422;7.210;2023-02-28T17:15:16;0.80;1.00
56308;DHT22;42217;50.422;7.210;2023-02-28T17:17:42;0.70;1.00
56308;DHT22;42217;50.422;7.210;2023-02-28T17:20:20;0.50;16.20
56308;DHT22;42217;50.422;7.210;2023-02-28T17:22:50;0.30;17.70
56308;DHT22;42217;50.422;7.210;2023-02-28T17:25:16;0.10;22.80
56308;DHT22;42217;50.422;7.210;2023-02-28T17:27:42;-0.20;29.30
56308;DHT22;42217;50.422;7.210;2023-02-28T17:30:18;-0.50;41.30
56308;DHT22;42217;50.422;7.210;2023-02-28T17:32:44;-0.60;42.00
56308;DHT22;42217;50.422;7.210;2023-02-28T17:35:10;-0.80;50.00
56308;DHT22;42217;50.422;7.210;2023-02-28T17:37:36;-0.60;59.70
56308;DHT22;42217;50.422;7.210;2023-02-28T17:40:02;-0.30;50.00
56308;DHT22;42217;50.422;7.210;2023-02-28T17:42:28;-0.20;45.30
56308;DHT22;42217;50.422;7.210;2023-02-28T17:44:54;-0.20;45.70
56308;DHT22;42217;50.422;7.210;2023-02-28T17:47:19;-0.10;41.70
56308;DHT22;42217;50.422;7.210;2023-02-28T17:49:45;-0.10;36.20
56308;DHT22;42217;50.422;7.210;2023-02-28T17:52:11;-0.10;36.00
56308;DHT22;42217;50.422;7.210;2023-02-28T17:54:36;-0.20;36.40
56308;DHT22;42217;50.422;7.210;2023-02-28T17:57:02;-0.20;39.60
56308;DHT22;42217;50.422;7.210;2023-02-28T17:59:28;-0.20;38.70
56308;DHT22;42217;50.422;7.210;2023-02-28T18:02:02;-0.30;39.90
56308;DHT22;42217;50.422;7.210;2023-02-28T18:04:29;-0.40;45.40
56308;DHT22;42217;50.422;7.210;2023-02-28T18:06:56;-0.50;46.00
56308;DHT22;42217;50.422;7.210;2023-02-28T18:09:26;-0.50;48.00
56308;DHT22;42217;50.422;7.210;2023-02-28T18:11:54;-0.50;48.00
56308;DHT22;42217;50.422;7.210;2023-02-28T18:14:21;-0.50;49.70
56308;DHT22;42217;50.422;7.210;2023-02-28T18:16:49;-0.60;51.70
56308;DHT22;42217;50.422;7.210;2023-02-28T18:19:18;-0.60;54.80
56308;DHT22;42217;50.422;7.210;2023-02-28T18:21:47;-0.70;60.20
56308;DHT22;42217;50.422;7.210;2023-02-28T18:24:14;-0.80;62.50
56308;DHT22;42217;50.422;7.210;2023-02-28T18:26:40;-0.80;65.80
56308;DHT22;42217;50.422;7.210;2023-02-28T18:29:07;-0.90;67.70
56308;DHT22;42217;50.422;7.210;2023-02-28T18:31:34;-0.90;68.70
56308;DHT22;42217;50.422;7.210;2023-02-28T18:34:00;-1.00;69.90
56308;DHT22;42217;50.422;7.210;2023-02-28T18:36:26;-1.00;70.00
56308;DHT22;42217;50.422;7.210;2023-02-28T18:38:53;-1.10;76.30
56308;DHT22;42217;50.422;7.210;2023-02-28T18:41:23;-1.10;71.50
56308;DHT22;42217;50.422;7.210;2023-02-28T18:43:50;-1.10;71.50
56308;DHT22;42217;50.422;7.210;2023-02-28T18:46:18;-1.20;72.00
56308;DHT22;42217;50.422;7.210;2023-02-28T18:48:44;-1.30;75.50
56308;DHT22;42217;50.422;7.210;2023-02-28T18:51:18;-1.40;79.60